This is the latest recevied weather packets stored in our database for station/object WV4O. If no packets are shown the sender has not sent any weather packets the latest 10 day(s).
| Time | Temp. | Humidity | Pressure | Rain* | Wind** | Luminosity | Snow |
|---|---|---|---|---|---|---|---|
| 1778252716 | 18.33° C | 52% | 1014.1 hPa | 0 mm | - | 721 W/m² | - |
| 1778251517 | 17.78° C | 51% | 1014.3 hPa | 0 mm | - | 663 W/m² | - |
| 1778247317 | 15° C | 65% | 1014.5 hPa | 0 mm | - | 376 W/m² | - |
| 1778246138 | 13.89° C | 70% | 1015 hPa | 0 mm | - | 291 W/m² | - |
| 1778244917 | 12.78° C | 77% | 1015.1 hPa | 0 mm | - | 269 W/m² | - |
| 1778243119 | 10.56° C | 84% | 1015.1 hPa | 0 mm | - | 198 W/m² | - |
| 1778239519 | 7.22° C | 94% | 1015.2 hPa | 0 mm | - | 43 W/m² | - |
| 1778238917 | 7.22° C | 95% | 1015.3 hPa | 0 mm | - | 25 W/m² | - |
| 1778237716 | 7.22° C | 96% | 1015.3 hPa | 0 mm | - | 4 W/m² | - |
| 1778231138 | 7.78° C | 95% | 1014.9 hPa | 0 mm | - | 0 W/m² | - |
| 1778223916 | 9.44° C | 87% | 1015.8 hPa | 0 mm | - | 0 W/m² | - |
| 1778222716 | 8.89° C | 90% | 1015.8 hPa | 0 mm | - | 0 W/m² | - |
| 1778221519 | 9.44° C | 88% | 1016 hPa | 0 mm | - | 0 W/m² | - |
| 1778217316 | 10.56° C | 81% | 1016.2 hPa | 0 mm | - | 0 W/m² | - |
| 1778214916 | 11.11° C | 80% | 1016 hPa | 0 mm | - | 0 W/m² | - |
| 1778207139 | 13.89° C | 65% | 1016 hPa | 0 mm | - | 0 W/m² | - |
| 1778206539 | 13.89° C | 64% | 1015.8 hPa | 0 mm | - | 0 W/m² | - |
| 1778204716 | 15° C | 57% | 1015.6 hPa | 0 mm | - | 0 W/m² | - |
| 1778202917 | 15.56° C | 54% | 1015.9 hPa | 0 mm | - | 0 W/m² | - |
| 1778202316 | 16.67° C | 53% | 1015.6 hPa | 0 mm | - | 1 W/m² | - |
| 1778201116 | 17.78° C | 43% | 1015.1 hPa | 0 mm | - | 7 W/m² | - |
| 1778198717 | 18.33° C | 40% | 1014.7 hPa | 0 mm | - | 70 W/m² | - |
| 1778192116 | 18.89° C | 39% | 1015.4 hPa | 0 mm | - | 82 W/m² | - |
| 1778190917 | 18.33° C | 40% | 1014.5 hPa | 0 mm | - | 505 W/m² | - |
| 1778188517 | 18.89° C | 39% | 1014 hPa | 0 mm | - | 653 W/m² | - |
* Rain latest hour (hover to see other rain measurements)
** Current wind speed in m/s (hover to see current wind gust speed)